Time,TemperatureF,DewpointF,PressureIn,WindDirection,WindDirectionDegrees,WindSpeedMPH,WindSpeedGustMPH,Humidity,HourlyPrecipIn,Conditions,Clouds,dailyrainin,SoftwareType,DateUTC
2013-03-07 00:00:00,47.1,31.7,30.13,WNW,292,2.0,4.0,55,0.00,,,0.00,WeatherCatV1.14B232,2013-03-07 05:00:00,
2013-03-07 00:01:00,47.1,31.7,30.13,WNW,292,2.0,2.0,55,0.00,,,0.00,WeatherCatV1.14B232,2013-03-07 05:01:00,
2013-03-07 00:06:00,46.9,31.5,30.13,North,0,7.2,7.2,55,0.00,,,0.00,WeatherCatV1.14B232,2013-03-07 05:06:00,
2013-03-07 00:11:00,46.9,31.5,30.13,NNW,337,0.0,0.0,55,0.00,,,0.00,WeatherCatV1.14B232,2013-03-07 05:11:00,
2013-03-07 00:16:00,46.9,31.5,30.13,NNW,337,3.4,3.4,55,0.00,,,0.00,WeatherCatV1.14B232,2013-03-07 05:16:00,
2013-03-07 00:21:00,46.9,31.5,30.13,NW,315,2.0,2.0,55,0.00,,,0.00,WeatherCatV1.14B232,2013-03-07 05:21:00,
2013-03-07 00:26:00,46.9,31.5,30.13,NW,315,2.5,2.5,55,0.00,,,0.00,WeatherCatV1.14B232,2013-03-07 05:26:00,
2013-03-07 00:31:00,46.8,31.4,30.13,NNW,337,0.0,0.0,55,0.00,,,0.00,WeatherCatV1.14B232,2013-03-07 05:31:00,
2013-03-07 00:36:00,46.8,31.4,30.13,ENE,67,0.0,0.0,55,0.00,,,0.00,WeatherCatV1.14B232,2013-03-07 05:36:00,
2013-03-07 00:41:00,46.8,31.4,30.13,NW,315,0.0,0.0,55,0.00,,,0.00,WeatherCatV1.14B232,2013-03-07 05:41:00,
2013-03-07 00:46:00,46.6,31.6,30.13,NW,315,0.0,0.9,56,0.00,,,0.00,WeatherCatV1.14B232,2013-03-07 05:46:00,
2013-03-07 00:51:00,46.6,31.6,30.13,NW,315,0.0,0.0,56,0.00,,,0.00,WeatherCatV1.14B232,2013-03-07 05:51:00,
2013-03-07 00:56:00,46.6,31.6,30.13,West,270,0.9,0.9,56,0.00,,,0.00,WeatherCatV1.14B232,2013-03-07 05:56:00,
2013-03-07 01:01:00,46.6,31.6,30.13,North,0,3.1,3.1,56,0.00,,,0.00,WeatherCatV1.14B232,2013-03-07 06:01:00,
2013-03-07 01:06:00,46.2,31.3,30.13,North,0,1.3,2.0,56,0.00,,,0.00,WeatherCatV1.14B232,2013-03-07 06:06:00,
2013-03-07 01:11:00,46.2,31.3,30.14,NNE,22,1.6,1.6,56,0.00,,,0.00,WeatherCatV1.14B232,2013-03-07 06:11:00,
2013-03-07 01:16:00,46.0,31.6,30.14,WNW,292,1.1,1.1,57,0.00,,,0.00,WeatherCatV1.14B232,2013-03-07 06:16:00,
2013-03-07 01:21:00,46.0,31.6,30.15,North,0,5.8,5.8,57,0.00,,,0.00,WeatherCatV1.14B232,2013-03-07 06:21:00,
2013-03-07 01:26:00,45.9,31.4,30.15,NW,315,2.5,2.5,57,0.00,,,0.00,WeatherCatV1.14B232,2013-03-07 06:26:00,
2013-03-07 01:31:00,45.7,31.3,30.14,NNW,337,6.0,6.0,57,0.00,,,0.00,WeatherCatV1.14B232,2013-03-07 06:31:00,
2013-03-07 01:36:00,45.7,31.3,30.15,WNW,292,1.6,1.6,57,0.00,,,0.00,WeatherCatV1.14B232,2013-03-07 06:36:00,
2013-03-07 01:41:00,45.5,31.1,30.15,North,0,0.0,0.0,57,0.00,,,0.00,WeatherCatV1.14B232,2013-03-07 06:41:00,
2013-03-07 01:46:00,45.3,30.9,30.15,WNW,292,0.0,0.0,57,0.00,,,0.00,WeatherCatV1.14B232,2013-03-07 06:46:00,
2013-03-07 01:51:00,45.3,30.9,30.15,North,0,3.8,3.8,57,0.00,,,0.00,WeatherCatV1.14B232,2013-03-07 06:51:00,
2013-03-07 01:56:00,45.3,30.8,30.15,NNW,337,4.7,4.7,57,0.00,,,0.00,WeatherCatV1.14B232,2013-03-07 06:56:00,
2013-03-07 02:10:00,45.1,30.8,30.15,NNW,337,0.0,0.0,57,0.00,,,0.00,WeatherCatV1.14B232,2013-03-07 07:10:00,
2013-03-07 02:15:00,45.0,31.1,30.15,NE,45,0.0,0.0,58,0.00,,,0.00,WeatherCatV1.14B232,2013-03-07 07:15:00,
2013-03-07 02:20:00,45.0,31.1,30.15,WNW,292,0.0,0.0,58,0.00,,,0.00,WeatherCatV1.14B232,2013-03-07 07:20:00,
2013-03-07 02:25:00,44.8,30.9,30.15,NNE,22,0.0,2.0,58,0.00,,,0.00,WeatherCatV1.14B232,2013-03-07 07:25:00,
2013-03-07 02:30:00,44.6,31.2,30.14,NE,45,0.0,0.0,59,0.00,,,0.00,WeatherCatV1.14B232,2013-03-07 07:30:00,
2013-03-07 02:35:00,44.6,31.2,30.14,NNW,337,0.0,0.0,59,0.00,,,0.00,WeatherCatV1.14B232,2013-03-07 07:35:00,
2013-03-07 02:40:00,44.4,31.0,30.15,NNW,337,0.0,0.0,59,0.00,,,0.00,WeatherCatV1.14B232,2013-03-07 07:40:00,
2013-03-07 02:45:00,44.4,31.0,30.15,NNW,337,0.0,0.0,59,0.00,,,0.00,WeatherCatV1.14B232,2013-03-07 07:45:00,
2013-03-07 02:50:00,44.4,31.0,30.15,NNW,337,0.0,0.0,59,0.00,,,0.00,WeatherCatV1.14B232,2013-03-07 07:50:00,
2013-03-07 02:55:00,44.2,30.8,30.15,North,0,1.1,3.1,59,0.00,,,0.00,WeatherCatV1.14B232,2013-03-07 07:55:00,
2013-03-07 03:00:00,44.1,30.6,30.15,West,270,0.9,0.9,59,0.00,,,0.00,WeatherCatV1.14B232,2013-03-07 08:00:00,
2013-03-07 03:10:00,44.1,30.6,30.15,West,270,0.9,0.9,-999,0.00,,,0.00,WeatherCatV1.14B232,2013-03-07 08:10:00,
2013-03-07 03:15:00,44.1,30.6,30.15,NNW,337,1.1,1.1,59,0.00,,,0.00,WeatherCatV1.14B232,2013-03-07 08:15:00,
2013-03-07 03:20:00,43.9,30.5,30.14,NNW,337,2.2,2.2,59,0.00,,,0.00,WeatherCatV1.14B232,2013-03-07 08:20:00,
2013-03-07 03:25:00,43.9,30.5,30.15,NW,315,0.0,0.0,59,0.00,,,0.00,WeatherCatV1.14B232,2013-03-07 08:25:00,
2013-03-07 03:30:00,43.9,30.9,30.14,NNW,337,1.6,1.6,60,0.00,,,0.00,WeatherCatV1.14B232,2013-03-07 08:30:00,
2013-03-07 03:35:00,43.7,30.7,30.14,NNW,337,1.6,1.6,60,0.00,,,0.00,WeatherCatV1.14B232,2013-03-07 08:35:00,
2013-03-07 03:40:00,43.5,30.6,30.15,West,270,3.4,3.4,60,0.00,,,0.00,WeatherCatV1.14B232,2013-03-07 08:40:00,
2013-03-07 03:45:00,43.5,30.6,30.15,NNW,337,0.0,0.0,60,0.00,,,0.00,WeatherCatV1.14B232,2013-03-07 08:45:00,
2013-03-07 03:50:00,43.5,30.6,30.16,NW,315,1.1,1.1,60,0.00,,,0.00,WeatherCatV1.14B232,2013-03-07 08:50:00,
2013-03-07 03:55:00,43.5,30.6,30.15,NW,315,1.8,1.8,60,0.00,,,0.00,WeatherCatV1.14B232,2013-03-07 08:55:00,
2013-03-07 04:00:00,43.3,30.4,30.15,NNW,337,0.0,0.0,60,0.00,,,0.00,WeatherCatV1.14B232,2013-03-07 09:00:00,
2013-03-07 04:05:00,43.3,30.4,30.15,North,0,0.0,1.6,60,0.00,,,0.00,WeatherCatV1.14B232,2013-03-07 09:05:00,
2013-03-07 04:10:00,43.3,30.8,30.15,NNW,337,1.8,1.8,61,0.00,,,0.00,WeatherCatV1.14B232,2013-03-07 09:10:00,
2013-03-07 04:15:00,43.2,30.6,30.15,NW,315,0.0,0.0,61,0.00,,,0.00,WeatherCatV1.14B232,2013-03-07 09:15:00,
2013-03-07 04:20:00,43.2,30.6,30.15,NNW,337,1.6,1.6,61,0.00,,,0.00,WeatherCatV1.14B232,2013-03-07 09:20:00,
2013-03-07 04:25:00,43.2,30.6,30.15,NNW,337,6.7,6.7,61,0.00,,,0.00,WeatherCatV1.14B232,2013-03-07 09:25:00,
2013-03-07 04:30:00,43.0,30.4,30.16,West,270,1.6,1.6,61,0.00,,,0.00,WeatherCatV1.14B232,2013-03-07 09:30:00,
2013-03-07 04:35:00,43.0,30.4,30.17,WSW,247,0.9,0.9,61,0.00,,,0.00,WeatherCatV1.14B232,2013-03-07 09:35:00,
2013-03-07 04:40:00,42.6,30.5,30.16,North,0,0.0,1.6,62,0.00,,,0.00,WeatherCatV1.14B232,2013-03-07 09:40:00,
2013-03-07 04:45:00,42.6,30.5,30.16,NW,315,0.0,0.0,62,0.00,,,0.00,WeatherCatV1.14B232,2013-03-07 09:45:00,
2013-03-07 04:50:00,42.6,30.5,30.16,North,0,2.7,3.8,62,0.00,,,0.00,WeatherCatV1.14B232,2013-03-07 09:50:00,
2013-03-07 04:55:00,42.6,30.5,30.16,NNW,337,0.0,1.1,62,0.00,,,0.00,WeatherCatV1.14B232,2013-03-07 09:55:00,
2013-03-07 05:01:00,42.4,30.3,30.16,West,270,0.0,0.0,62,0.00,,,0.00,WeatherCatV1.14B232,2013-03-07 10:01:00,
2013-03-07 05:06:00,42.4,30.3,30.16,NNW,337,0.0,0.0,62,0.00,,,0.00,WeatherCatV1.14B232,2013-03-07 10:06:00,
2013-03-07 05:11:00,42.4,30.3,30.16,NNW,337,2.5,2.5,62,0.00,,,0.00,WeatherCatV1.14B232,2013-03-07 10:11:00,
2013-03-07 05:16:00,42.4,30.7,30.16,NNE,22,0.0,2.7,63,0.00,,,0.00,WeatherCatV1.14B232,2013-03-07 10:16:00,
2013-03-07 05:21:00,42.4,30.7,30.16,WNW,292,0.0,0.0,63,0.00,,,0.00,WeatherCatV1.14B232,2013-03-07 10:21:00,
2013-03-07 05:26:00,42.1,30.3,30.16,NW,315,2.5,2.5,63,0.00,,,0.00,WeatherCatV1.14B232,2013-03-07 10:26:00,
2013-03-07 05:31:00,42.1,30.3,30.16,North,0,0.0,3.1,63,0.00,,,0.00,WeatherCatV1.14B232,2013-03-07 10:31:00,
2013-03-07 05:36:00,42.1,30.3,30.17,NNW,337,2.5,2.5,63,0.00,,,0.00,WeatherCatV1.14B232,2013-03-07 10:36:00,
2013-03-07 05:41:00,42.1,30.7,30.17,NNW,337,3.4,3.4,64,0.00,,,0.00,WeatherCatV1.14B232,2013-03-07 10:41:00,
2013-03-07 05:46:00,42.1,30.7,30.17,NW,315,1.1,3.4,64,0.00,,,0.00,WeatherCatV1.14B232,2013-03-07 10:46:00,
2013-03-07 05:51:00,42.1,30.7,30.17,NW,315,4.2,4.2,64,0.00,,,0.00,WeatherCatV1.14B232,2013-03-07 10:51:00,
2013-03-07 05:56:00,42.1,30.7,30.17,NW,315,0.0,1.6,64,0.00,,,0.00,WeatherCatV1.14B232,2013-03-07 10:56:00,
2013-03-07 06:02:00,42.1,30.7,30.17,NW,315,0.7,0.7,64,0.00,,,0.00,WeatherCatV1.14B232,2013-03-07 11:02:00,
2013-03-07 06:07:00,42.1,31.1,30.17,NNW,337,2.5,2.5,65,0.00,,,0.00,WeatherCatV1.14B232,2013-03-07 11:07:00,
2013-03-07 06:12:00,41.9,30.6,30.17,NNE,22,0.0,0.0,64,0.00,,,0.00,WeatherCatV1.14B232,2013-03-07 11:12:00,
2013-03-07 06:17:00,41.9,31.0,30.17,WNW,292,2.9,2.9,65,0.00,,,0.00,WeatherCatV1.14B232,2013-03-07 11:17:00,
2013-03-07 06:22:00,41.9,31.0,30.17,WNW,292,0.0,2.0,65,0.00,,,0.00,WeatherCatV1.14B232,2013-03-07 11:22:00,
2013-03-07 06:27:00,41.7,30.8,30.17,NNW,337,0.0,0.0,65,0.00,,,0.00,WeatherCatV1.14B232,2013-03-07 11:27:00,
2013-03-07 06:32:00,41.7,30.8,30.18,WNW,292,0.0,0.0,65,0.00,,,0.00,WeatherCatV1.14B232,2013-03-07 11:32:00,
2013-03-07 06:37:00,41.7,30.8,30.18,NNW,337,0.0,0.0,65,0.00,,,0.00,WeatherCatV1.14B232,2013-03-07 11:37:00,
2013-03-07 06:42:00,41.5,30.6,30.18,NW,315,0.0,0.0,65,0.00,,,0.00,WeatherCatV1.14B232,2013-03-07 11:42:00,
2013-03-07 06:47:00,41.5,30.6,30.17,North,0,3.1,3.1,65,0.00,,,0.00,WeatherCatV1.14B232,2013-03-07 11:47:00,
2013-03-07 06:52:00,41.5,30.6,30.18,NNW,337,0.0,0.0,65,0.00,,,0.00,WeatherCatV1.14B232,2013-03-07 11:52:00,
2013-03-07 06:57:00,41.5,30.6,30.19,West,270,0.0,0.0,65,0.00,,,0.00,WeatherCatV1.14B232,2013-03-07 11:57:00,
2013-03-07 07:02:00,41.4,30.8,30.19,West,270,0.0,0.0,66,0.00,,,0.00,WeatherCatV1.14B232,2013-03-07 12:02:00,
2013-03-07 07:07:00,41.4,30.8,30.19,NW,315,1.1,3.1,66,0.00,,,0.00,WeatherCatV1.14B232,2013-03-07 12:07:00,
2013-03-07 07:12:00,41.4,30.8,30.19,West,270,2.9,2.9,66,0.00,,,0.00,WeatherCatV1.14B232,2013-03-07 12:12:00,
2013-03-07 07:17:00,41.2,31.0,30.19,WNW,292,4.7,4.7,67,0.00,,,0.00,WeatherCatV1.14B232,2013-03-07 12:17:00,
2013-03-07 07:22:00,41.2,31.0,30.19,NW,315,2.9,4.9,67,0.00,,,0.00,WeatherCatV1.14B232,2013-03-07 12:22:00,
2013-03-07 07:27:00,41.2,31.0,30.19,NNW,337,1.1,1.1,67,0.00,,,0.00,WeatherCatV1.14B232,2013-03-07 12:27:00,
2013-03-07 07:32:00,41.2,31.4,30.20,NW,315,3.4,3.4,68,0.00,,,0.00,WeatherCatV1.14B232,2013-03-07 12:32:00,
2013-03-07 07:37:00,41.2,31.4,30.20,WNW,292,0.0,1.1,68,0.00,,,0.00,WeatherCatV1.14B232,2013-03-07 12:37:00,
2013-03-07 07:42:00,41.4,31.6,30.20,NW,315,7.4,7.4,68,0.00,,,0.00,WeatherCatV1.14B232,2013-03-07 12:42:00,
2013-03-07 07:47:00,41.2,31.6,30.20,North,0,0.0,5.1,68,0.00,,,0.00,WeatherCatV1.14B232,2013-03-07 12:47:00,
2013-03-07 07:52:00,41.4,31.6,30.21,NW,315,2.7,3.6,68,0.00,,,0.00,WeatherCatV1.14B232,2013-03-07 12:52:00,
2013-03-07 07:57:00,41.4,31.6,30.21,NE,45,0.0,0.0,68,0.00,,,0.00,WeatherCatV1.14B232,2013-03-07 12:57:00,
2013-03-07 08:02:00,41.5,31.8,30.21,West,270,0.0,0.0,68,0.00,,,0.00,WeatherCatV1.14B232,2013-03-07 13:02:00,
2013-03-07 08:07:00,41.7,32.3,30.21,WNW,292,1.1,2.5,69,0.00,,,0.00,WeatherCatV1.14B232,2013-03-07 13:07:00,
2013-03-07 08:12:00,42.1,32.7,30.21,North,0,3.4,3.4,69,0.00,,,0.00,WeatherCatV1.14B232,2013-03-07 13:12:00,
2013-03-07 08:17:00,42.4,33.0,30.21,North,0,4.9,4.9,69,0.00,,,0.00,WeatherCatV1.14B232,2013-03-07 13:17:00,
2013-03-07 08:22:00,42.8,33.4,30.21,ENE,67,4.5,4.5,69,0.00,,,0.00,WeatherCatV1.14B232,2013-03-07 13:22:00,
2013-03-07 08:27:00,43.0,33.6,30.21,NNW,337,2.7,2.7,69,0.00,,,0.00,WeatherCatV1.14B232,2013-03-07 13:27:00,
2013-03-07 08:32:00,43.2,33.7,30.21,NW,315,0.0,0.0,69,0.00,,,0.00,WeatherCatV1.14B232,2013-03-07 13:32:00,
2013-03-07 08:37:00,43.3,34.3,30.20,NNW,337,0.0,0.0,70,0.00,,,0.00,WeatherCatV1.14B232,2013-03-07 13:37:00,
2013-03-07 08:42:00,43.7,34.6,30.21,NE,45,0.9,0.9,70,0.00,,,0.00,WeatherCatV1.14B232,2013-03-07 13:42:00,
2013-03-07 08:47:00,44.2,35.1,30.21,NNW,337,2.9,2.9,70,0.00,,,0.00,WeatherCatV1.14B232,2013-03-07 13:47:00,
2013-03-07 08:52:00,44.4,35.3,30.21,East,90,2.9,3.1,70,0.00,,,0.00,WeatherCatV1.14B232,2013-03-07 13:52:00,
2013-03-07 08:57:00,45.0,35.8,30.22,NNE,22,3.8,3.8,70,0.00,,,0.00,WeatherCatV1.14B232,2013-03-07 13:57:00,
2013-03-07 09:02:00,45.3,36.0,30.22,NNE,22,2.0,2.0,70,0.00,,,0.00,WeatherCatV1.14B232,2013-03-07 14:02:00,
2013-03-07 09:07:00,45.7,36.8,30.22,NE,45,0.0,1.6,71,0.00,,,0.00,WeatherCatV1.14B232,2013-03-07 14:07:00,
2013-03-07 09:12:00,46.2,37.4,30.23,East,90,2.2,2.2,71,0.00,,,0.00,WeatherCatV1.14B232,2013-03-07 14:12:00,
2013-03-07 09:17:00,46.4,37.6,30.23,ENE,67,3.4,3.4,71,0.00,,,0.00,WeatherCatV1.14B232,2013-03-07 14:17:00,
2013-03-07 09:22:00,47.1,38.2,30.23,North,0,6.5,6.5,71,0.00,,,0.00,WeatherCatV1.14B232,2013-03-07 14:22:00,
2013-03-07 09:27:00,47.7,38.7,30.23,NNW,337,1.1,1.1,71,0.00,,,0.00,WeatherCatV1.14B232,2013-03-07 14:27:00,
2013-03-07 09:32:00,48.4,39.4,30.23,West,270,4.0,4.0,71,0.00,,,0.00,WeatherCatV1.14B232,2013-03-07 14:32:00,
2013-03-07 09:37:00,48.7,39.7,30.23,NNW,337,1.3,4.5,71,0.00,,,0.00,WeatherCatV1.14B232,2013-03-07 14:37:00,
2013-03-07 09:42:00,49.3,40.3,30.23,ESE,112,0.0,0.0,71,0.00,,,0.00,WeatherCatV1.14B232,2013-03-07 14:42:00,
2013-03-07 09:47:00,49.8,40.8,30.23,NNE,22,6.7,6.7,70,0.00,,,0.00,WeatherCatV1.14B232,2013-03-07 14:47:00,
2013-03-07 09:52:00,50.2,40.8,30.23,North,0,6.5,6.5,70,0.00,,,0.00,WeatherCatV1.14B232,2013-03-07 14:52:00,
2013-03-07 09:57:00,50.2,40.8,30.23,WNW,292,2.9,2.9,70,0.00,,,0.00,WeatherCatV1.14B232,2013-03-07 14:57:00,
2013-03-07 10:02:00,50.7,40.8,30.23,NE,45,4.7,4.7,69,0.00,,,0.00,WeatherCatV1.14B232,2013-03-07 15:02:00,
2013-03-07 10:07:00,51.4,41.7,30.22,NNE,22,2.2,3.6,69,0.00,,,0.00,WeatherCatV1.14B232,2013-03-07 15:07:00,
2013-03-07 10:12:00,51.4,41.3,30.22,SSE,157,1.6,1.6,68,0.00,,,0.00,WeatherCatV1.14B232,2013-03-07 15:12:00,
2013-03-07 10:17:00,52.2,41.8,30.23,North,0,5.1,5.1,68,0.00,,,0.00,WeatherCatV1.14B232,2013-03-07 15:17:00,
2013-03-07 10:22:00,52.3,41.7,30.22,NE,45,6.3,6.3,67,0.00,,,0.00,WeatherCatV1.14B232,2013-03-07 15:22:00,
2013-03-07 10:27:00,52.5,41.9,30.22,NE,45,6.3,6.3,67,0.00,,,0.00,WeatherCatV1.14B232,2013-03-07 15:27:00,
2013-03-07 10:32:00,52.9,42.2,30.22,ENE,67,3.8,4.2,67,0.00,,,0.00,WeatherCatV1.14B232,2013-03-07 15:32:00,
2013-03-07 10:37:00,53.2,42.1,30.23,East,90,2.2,2.2,66,0.00,,,0.00,WeatherCatV1.14B232,2013-03-07 15:37:00,
2013-03-07 10:42:00,53.4,42.3,30.23,East,90,0.0,0.0,66,0.00,,,0.00,WeatherCatV1.14B232,2013-03-07 15:42:00,
2013-03-07 10:47:00,53.6,42.1,30.23,South,180,0.0,6.3,65,0.00,,,0.00,WeatherCatV1.14B232,2013-03-07 15:47:00,
2013-03-07 10:52:00,53.6,42.1,30.23,North,0,1.6,1.6,65,0.00,,,0.00,WeatherCatV1.14B232,2013-03-07 15:52:00,
2013-03-07 10:57:00,53.8,42.2,30.23,NNE,22,4.7,4.7,65,0.00,,,0.00,WeatherCatV1.14B232,2013-03-07 15:57:00,
2013-03-07 11:03:00,54.0,42.0,30.23,NE,45,4.2,4.2,64,0.00,,,0.00,WeatherCatV1.14B232,2013-03-07 16:03:00,
2013-03-07 11:08:00,54.1,42.2,30.23,NNW,337,3.4,3.4,64,0.00,,,0.00,WeatherCatV1.14B232,2013-03-07 16:08:00,
2013-03-07 11:13:00,54.3,42.3,30.23,ESE,112,2.0,2.0,64,0.00,,,0.00,WeatherCatV1.14B232,2013-03-07 16:13:00,
2013-03-07 11:18:00,54.7,42.7,30.23,ENE,67,4.0,4.0,64,0.00,,,0.00,WeatherCatV1.14B232,2013-03-07 16:18:00,
2013-03-07 11:23:00,55.0,42.6,30.23,NNE,22,6.0,6.0,63,0.00,,,0.00,WeatherCatV1.14B232,2013-03-07 16:23:00,
2013-03-07 11:28:00,55.6,43.1,30.22,NE,45,1.3,1.3,63,0.00,,,0.00,WeatherCatV1.14B232,2013-03-07 16:28:00,
2013-03-07 11:33:00,56.1,43.2,30.23,NW,315,2.5,2.5,62,0.00,,,0.00,WeatherCatV1.14B232,2013-03-07 16:33:00,
2013-03-07 11:38:00,56.5,43.6,30.23,NE,45,4.7,4.7,62,0.00,,,0.00,WeatherCatV1.14B232,2013-03-07 16:38:00,
2013-03-07 11:43:00,56.8,43.6,30.23,NE,45,7.6,7.6,61,0.00,,,0.00,WeatherCatV1.14B232,2013-03-07 16:43:00,
2013-03-07 11:48:00,57.4,44.1,30.23,NNE,22,0.0,5.8,61,0.00,,,0.00,WeatherCatV1.14B232,2013-03-07 16:48:00,
2013-03-07 11:53:00,57.6,43.8,30.22,ESE,112,0.0,1.1,60,0.00,,,0.00,WeatherCatV1.14B232,2013-03-07 16:53:00,
2013-03-07 11:58:00,57.9,44.2,30.23,NE,45,4.7,4.7,60,0.00,,,0.00,WeatherCatV1.14B232,2013-03-07 16:58:00,
2013-03-07 12:03:00,58.5,44.2,30.22,NE,45,1.1,1.1,60,0.00,,,0.00,WeatherCatV1.14B232,2013-03-07 17:03:00,
2013-03-07 12:08:00,58.8,44.5,30.22,SSE,157,0.0,0.0,59,0.00,,,0.00,WeatherCatV1.14B232,2013-03-07 17:08:00,
2013-03-07 12:13:00,58.8,44.5,30.22,ENE,67,3.4,3.4,59,0.00,,,0.00,WeatherCatV1.14B232,2013-03-07 17:13:00,
2013-03-07 12:18:00,59.0,44.2,30.22,South,180,2.9,4.5,58,0.00,,,0.00,WeatherCatV1.14B232,2013-03-07 17:18:00,
2013-03-07 12:23:00,59.0,44.2,30.22,NNE,22,2.9,2.9,58,0.00,,,0.00,WeatherCatV1.14B232,2013-03-07 17:23:00,
2013-03-07 12:28:00,59.2,44.4,30.22,NNE,22,4.7,4.7,58,0.00,,,0.00,WeatherCatV1.14B232,2013-03-07 17:28:00,
2013-03-07 12:33:00,58.8,44.0,30.22,North,0,5.1,8.9,58,0.00,,,0.00,WeatherCatV1.14B232,2013-03-07 17:33:00,
2013-03-07 12:38:00,58.8,44.0,30.23,NNE,22,3.1,3.1,58,0.00,,,0.00,WeatherCatV1.14B232,2013-03-07 17:38:00,
2013-03-07 12:43:00,58.6,43.4,30.22,NNE,22,7.2,7.2,57,0.00,,,0.00,WeatherCatV1.14B232,2013-03-07 17:43:00,
2013-03-07 12:48:00,58.3,43.6,30.21,SSE,157,1.8,5.4,58,0.00,,,0.00,WeatherCatV1.14B232,2013-03-07 17:48:00,
2013-03-07 12:53:00,58.3,43.6,30.21,SSE,157,0.0,0.0,58,0.00,,,0.00,WeatherCatV1.14B232,2013-03-07 17:53:00,
2013-03-07 12:58:00,58.3,43.6,30.21,NE,45,3.8,3.8,58,0.00,,,0.00,WeatherCatV1.14B232,2013-03-07 17:58:00,
2013-03-07 13:03:00,58.3,43.6,30.21,NNE,22,1.3,2.9,58,0.00,,,0.00,WeatherCatV1.14B232,2013-03-07 18:03:00,
2013-03-07 13:08:00,58.3,43.6,30.21,NE,45,3.8,3.8,58,0.00,,,0.00,WeatherCatV1.14B232,2013-03-07 18:08:00,
2013-03-07 13:13:00,58.3,43.6,30.20,NE,45,8.5,8.5,58,0.00,,,0.00,WeatherCatV1.14B232,2013-03-07 18:13:00,
2013-03-07 13:18:00,58.6,43.9,30.20,NE,45,3.1,3.1,58,0.00,,,0.00,WeatherCatV1.14B232,2013-03-07 18:18:00,
2013-03-07 13:23:00,58.8,44.0,30.19,North,0,3.8,3.8,58,0.00,,,0.00,WeatherCatV1.14B232,2013-03-07 18:23:00,
2013-03-07 13:28:00,58.8,44.0,30.20,ENE,67,3.6,3.6,58,0.00,,,0.00,WeatherCatV1.14B232,2013-03-07 18:28:00,
2013-03-07 13:33:00,59.4,44.5,30.20,NNE,22,6.0,6.0,58,0.00,,,0.00,WeatherCatV1.14B232,2013-03-07 18:33:00,
2013-03-07 13:38:00,59.4,44.5,30.20,ENE,67,5.1,6.0,58,0.00,,,0.00,WeatherCatV1.14B232,2013-03-07 18:38:00,
2013-03-07 13:43:00,59.2,44.4,30.20,NNE,22,6.9,6.9,58,0.00,,,0.00,WeatherCatV1.14B232,2013-03-07 18:43:00,
2013-03-07 13:48:00,59.2,44.4,30.20,ENE,67,4.0,4.0,58,0.00,,,0.00,WeatherCatV1.14B232,2013-03-07 18:48:00,
2013-03-07 13:53:00,59.2,44.4,30.20,East,90,4.5,4.5,58,0.00,,,0.00,WeatherCatV1.14B232,2013-03-07 18:53:00,
2013-03-07 13:58:00,59.2,44.4,30.20,NNE,22,4.5,4.5,58,0.00,,,0.00,WeatherCatV1.14B232,2013-03-07 18:58:00,
2013-03-07 14:03:00,59.2,44.4,30.19,ESE,112,1.6,7.6,58,0.00,,,0.00,WeatherCatV1.14B232,2013-03-07 19:03:00,
2013-03-07 14:08:00,59.2,44.4,30.19,NNE,22,4.9,4.9,58,0.00,,,0.00,WeatherCatV1.14B232,2013-03-07 19:08:00,
2013-03-07 14:13:00,59.2,44.4,30.18,East,90,6.7,6.7,58,0.00,,,0.00,WeatherCatV1.14B232,2013-03-07 19:13:00,
2013-03-07 14:18:00,59.0,44.2,30.18,NE,45,5.1,9.2,58,0.00,,,0.00,WeatherCatV1.14B232,2013-03-07 19:18:00,
2013-03-07 14:23:00,58.8,44.0,30.18,NE,45,2.2,2.2,58,0.00,,,0.00,WeatherCatV1.14B232,2013-03-07 19:23:00,
2013-03-07 14:28:00,58.6,43.9,30.19,NE,45,5.1,5.1,58,0.00,,,0.00,WeatherCatV1.14B232,2013-03-07 19:28:00,
2013-03-07 14:33:00,58.6,43.9,30.18,WSW,247,0.0,0.0,58,0.00,,,0.00,WeatherCatV1.14B232,2013-03-07 19:33:00,
2013-03-07 14:38:00,58.6,43.9,30.18,South,180,0.0,0.0,58,0.00,,,0.00,WeatherCatV1.14B232,2013-03-07 19:38:00,
2013-03-07 14:43:00,58.6,43.9,30.18,NE,45,6.9,6.9,58,0.00,,,0.00,WeatherCatV1.14B232,2013-03-07 19:43:00,
2013-03-07 14:48:00,58.6,43.9,30.18,NNE,22,4.0,4.0,58,0.00,,,0.00,WeatherCatV1.14B232,2013-03-07 19:48:00,
2013-03-07 14:53:00,58.8,44.0,30.17,SE,135,0.0,3.6,58,0.00,,,0.00,WeatherCatV1.14B232,2013-03-07 19:53:00,
2013-03-07 14:58:00,58.8,44.0,30.17,SSE,157,0.0,6.3,58,0.00,,,0.00,WeatherCatV1.14B232,2013-03-07 19:58:00,
2013-03-07 15:03:00,58.6,43.9,30.17,South,180,0.0,0.0,58,0.00,,,0.00,WeatherCatV1.14B232,2013-03-07 20:03:00,
2013-03-07 15:08:00,58.6,43.9,30.17,NE,45,2.5,2.5,58,0.00,,,0.00,WeatherCatV1.14B232,2013-03-07 20:08:00,
2013-03-07 15:13:00,58.5,43.7,30.16,SSE,157,0.0,0.0,58,0.00,,,0.00,WeatherCatV1.14B232,2013-03-07 20:13:00,
2013-03-07 15:18:00,58.6,43.9,30.17,NE,45,4.2,4.2,58,0.00,,,0.00,WeatherCatV1.14B232,2013-03-07 20:18:00,
2013-03-07 15:23:00,58.6,44.3,30.17,SE,135,0.0,0.0,59,0.00,,,0.00,WeatherCatV1.14B232,2013-03-07 20:23:00,
2013-03-07 15:28:00,58.6,44.3,30.17,East,90,2.5,2.5,59,0.00,,,0.00,WeatherCatV1.14B232,2013-03-07 20:28:00,
2013-03-07 15:33:00,58.8,44.5,30.16,ESE,112,0.0,0.0,59,0.00,,,0.00,WeatherCatV1.14B232,2013-03-07 20:33:00,
2013-03-07 15:38:00,58.8,44.5,30.16,SE,135,2.0,2.0,59,0.00,,,0.00,WeatherCatV1.14B232,2013-03-07 20:38:00,
2013-03-07 15:43:00,58.8,44.5,30.16,ENE,67,0.0,2.9,59,0.00,,,0.00,WeatherCatV1.14B232,2013-03-07 20:43:00,
2013-03-07 15:48:00,58.8,44.5,30.15,ENE,67,5.4,5.4,59,0.00,,,0.00,WeatherCatV1.14B232,2013-03-07 20:48:00,
2013-03-07 15:53:00,58.8,44.0,30.15,East,90,1.3,1.3,58,0.00,,,0.00,WeatherCatV1.14B232,2013-03-07 20:53:00,
2013-03-07 15:58:00,58.6,43.9,30.16,ESE,112,0.0,0.9,58,0.00,,,0.00,WeatherCatV1.14B232,2013-03-07 20:58:00,
2013-03-07 16:03:00,58.6,44.3,30.16,East,90,0.0,0.0,59,0.00,,,0.00,WeatherCatV1.14B232,2013-03-07 21:03:00,
2013-03-07 16:08:00,58.6,44.3,30.15,SSE,157,0.0,0.0,59,0.00,,,0.00,WeatherCatV1.14B232,2013-03-07 21:08:00,
2013-03-07 16:13:00,58.5,44.2,30.15,ENE,67,0.0,4.7,59,0.00,,,0.00,WeatherCatV1.14B232,2013-03-07 21:13:00,
2013-03-07 16:18:00,58.5,44.2,30.15,ENE,67,2.5,2.5,59,0.00,,,0.00,WeatherCatV1.14B232,2013-03-07 21:18:00,
2013-03-07 16:23:00,58.3,44.0,30.15,NW,315,0.0,0.0,59,0.00,,,0.00,WeatherCatV1.14B232,2013-03-07 21:23:00,
2013-03-07 16:28:00,58.5,44.2,30.15,SE,135,0.0,0.0,59,0.00,,,0.00,WeatherCatV1.14B232,2013-03-07 21:28:00,
2013-03-07 16:33:00,58.5,44.2,30.15,WNW,292,0.0,0.0,59,0.00,,,0.00,WeatherCatV1.14B232,2013-03-07 21:33:00,
2013-03-07 16:38:00,58.5,44.2,30.15,SSE,157,0.0,0.0,59,0.00,,,0.00,WeatherCatV1.14B232,2013-03-07 21:38:00,
2013-03-07 16:43:00,58.6,44.3,30.15,North,0,0.0,0.0,59,0.00,,,0.00,WeatherCatV1.14B232,2013-03-07 21:43:00,
2013-03-07 16:48:00,58.6,44.3,30.15,SSE,157,0.0,0.0,59,0.00,,,0.00,WeatherCatV1.14B232,2013-03-07 21:48:00,
2013-03-07 16:53:00,58.5,44.2,30.15,NNE,22,0.0,0.0,59,0.00,,,0.00,WeatherCatV1.14B232,2013-03-07 21:53:00,
2013-03-07 16:58:00,58.3,44.5,30.15,East,90,0.0,2.0,60,0.00,,,0.00,WeatherCatV1.14B232,2013-03-07 21:58:00,
2013-03-07 17:03:00,58.3,44.5,30.14,SE,135,1.1,1.1,60,0.00,,,0.00,WeatherCatV1.14B232,2013-03-07 22:03:00,
2013-03-07 17:08:00,58.3,44.5,30.14,SE,135,0.0,0.0,60,0.00,,,0.00,WeatherCatV1.14B232,2013-03-07 22:08:00,
2013-03-07 17:13:00,57.9,44.2,30.14,SE,135,0.0,0.0,60,0.00,,,0.00,WeatherCatV1.14B232,2013-03-07 22:13:00,
2013-03-07 17:18:00,57.7,44.0,30.15,SSE,157,0.0,0.0,60,0.00,,,0.00,WeatherCatV1.14B232,2013-03-07 22:18:00,
2013-03-07 17:23:00,57.4,43.7,30.15,SSE,157,0.0,0.0,60,0.00,,,0.00,WeatherCatV1.14B232,2013-03-07 22:23:00,
2013-03-07 17:28:00,57.0,43.3,30.15,SW,225,0.0,0.0,60,0.00,,,0.00,WeatherCatV1.14B232,2013-03-07 22:28:00,
2013-03-07 17:33:00,56.8,43.6,30.15,SSE,157,0.0,0.0,61,0.00,,,0.00,WeatherCatV1.14B232,2013-03-07 22:33:00,
2013-03-07 17:38:00,56.8,43.6,30.15,SSE,157,0.0,0.0,61,0.00,,,0.00,WeatherCatV1.14B232,2013-03-07 22:38:00,
2013-03-07 17:43:00,56.5,43.6,30.15,ESE,112,0.0,1.3,62,0.00,,,0.00,WeatherCatV1.14B232,2013-03-07 22:43:00,
2013-03-07 17:48:00,56.3,43.4,30.15,SE,135,0.0,0.0,62,0.00,,,0.00,WeatherCatV1.14B232,2013-03-07 22:48:00,
2013-03-07 17:53:00,56.1,43.2,30.15,SE,135,0.0,0.0,62,0.00,,,0.00,WeatherCatV1.14B232,2013-03-07 22:53:00,
2013-03-07 17:58:00,56.1,43.6,30.16,SSE,157,0.0,0.0,63,0.00,,,0.00,WeatherCatV1.14B232,2013-03-07 22:58:00,
2013-03-07 18:03:00,56.1,43.6,30.16,SSE,157,0.0,0.0,63,0.00,,,0.00,WeatherCatV1.14B232,2013-03-07 23:03:00,
2013-03-07 18:08:00,55.9,43.5,30.16,SSE,157,0.0,0.0,63,0.00,,,0.00,WeatherCatV1.14B232,2013-03-07 23:08:00,
2013-03-07 18:13:00,55.6,43.1,30.16,SSE,157,0.0,0.0,63,0.00,,,0.00,WeatherCatV1.14B232,2013-03-07 23:13:00,
2013-03-07 18:18:00,55.4,43.0,30.16,SSE,157,0.0,0.0,63,0.00,,,0.00,WeatherCatV1.14B232,2013-03-07 23:18:00,
2013-03-07 18:23:00,55.2,43.2,30.16,SSE,157,0.0,0.0,64,0.00,,,0.00,WeatherCatV1.14B232,2013-03-07 23:23:00,
2013-03-07 18:28:00,55.0,43.0,30.17,SSE,157,0.0,0.0,64,0.00,,,0.00,WeatherCatV1.14B232,2013-03-07 23:28:00,
2013-03-07 18:33:00,54.7,43.1,30.16,SSE,157,0.0,0.0,65,0.00,,,0.00,WeatherCatV1.14B232,2013-03-07 23:33:00,
2013-03-07 18:38:00,54.5,42.9,30.16,SSE,157,0.0,0.0,65,0.00,,,0.00,WeatherCatV1.14B232,2013-03-07 23:38:00,
2013-03-07 18:43:00,54.1,42.6,30.17,SSW,202,0.0,0.0,65,0.00,,,0.00,WeatherCatV1.14B232,2013-03-07 23:43:00,
2013-03-07 18:48:00,54.0,42.8,30.17,WSW,247,0.0,0.0,66,0.00,,,0.00,WeatherCatV1.14B232,2013-03-07 23:48:00,
2013-03-07 18:53:00,53.8,42.6,30.17,WSW,247,0.0,0.0,66,0.00,,,0.00,WeatherCatV1.14B232,2013-03-07 23:53:00,
2013-03-07 18:58:00,53.4,42.7,30.17,WSW,247,0.0,0.0,67,0.00,,,0.00,WeatherCatV1.14B232,2013-03-07 23:58:00,
2013-03-07 19:03:00,53.2,42.5,30.17,WSW,247,0.0,0.0,67,0.00,,,0.00,WeatherCatV1.14B232,2013-03-08 00:03:00,
2013-03-07 19:08:00,53.2,42.9,30.18,WSW,247,0.0,0.0,68,0.00,,,0.00,WeatherCatV1.14B232,2013-03-08 00:08:00,
2013-03-07 19:13:00,52.9,42.6,30.18,WSW,247,0.0,0.0,68,0.00,,,0.00,WeatherCatV1.14B232,2013-03-08 00:13:00,
2013-03-07 19:18:00,52.5,42.3,30.18,WSW,247,0.0,0.0,68,0.00,,,0.00,WeatherCatV1.14B232,2013-03-08 00:18:00,
2013-03-07 19:23:00,52.3,42.5,30.19,WSW,247,0.0,0.0,69,0.00,,,0.00,WeatherCatV1.14B232,2013-03-08 00:23:00,
2013-03-07 19:28:00,52.2,42.3,30.19,WSW,247,0.0,0.0,69,0.00,,,0.00,WeatherCatV1.14B232,2013-03-08 00:28:00,
2013-03-07 19:33:00,52.0,42.6,30.19,WSW,247,0.0,0.0,70,0.00,,,0.00,WeatherCatV1.14B232,2013-03-08 00:33:00,
2013-03-07 19:38:00,51.6,42.3,30.19,WSW,247,0.0,0.0,70,0.00,,,0.00,WeatherCatV1.14B232,2013-03-08 00:38:00,
2013-03-07 19:43:00,51.6,42.3,30.19,WSW,247,0.0,0.0,70,0.00,,,0.00,WeatherCatV1.14B232,2013-03-08 00:43:00,
2013-03-07 19:48:00,51.4,42.1,30.19,WSW,247,0.0,0.0,70,0.00,,,0.00,WeatherCatV1.14B232,2013-03-08 00:48:00,
2013-03-07 19:53:00,51.1,42.1,30.19,WSW,247,0.0,0.0,71,0.00,,,0.00,WeatherCatV1.14B232,2013-03-08 00:53:00,
2013-03-07 19:58:00,50.9,41.9,30.19,West,270,0.0,0.0,71,0.00,,,0.00,WeatherCatV1.14B232,2013-03-08 00:58:00,
2013-03-07 20:03:00,50.7,41.7,30.19,WNW,292,0.0,0.0,71,0.00,,,0.00,WeatherCatV1.14B232,2013-03-08 01:03:00,
2013-03-07 20:08:00,50.7,42.0,30.19,WNW,292,0.0,0.0,72,0.00,,,0.00,WeatherCatV1.14B232,2013-03-08 01:08:00,
2013-03-07 20:13:00,50.5,41.9,30.19,WNW,292,0.0,0.0,72,0.00,,,0.00,WeatherCatV1.14B232,2013-03-08 01:13:00,
2013-03-07 20:18:00,50.4,41.7,30.19,West,270,0.0,0.0,72,0.00,,,0.00,WeatherCatV1.14B232,2013-03-08 01:18:00,
2013-03-07 20:23:00,50.2,41.5,30.19,SW,225,0.0,0.0,72,0.00,,,0.00,WeatherCatV1.14B232,2013-03-08 01:23:00,
2013-03-07 20:28:00,50.2,41.8,30.20,West,270,0.0,0.0,73,0.00,,,0.00,WeatherCatV1.14B232,2013-03-08 01:28:00,
2013-03-07 20:33:00,49.8,41.5,30.19,WNW,292,0.0,0.0,73,0.00,,,0.00,WeatherCatV1.14B232,2013-03-08 01:33:00,
2013-03-07 20:38:00,49.8,41.8,30.20,WNW,292,0.0,0.0,74,0.00,,,0.00,WeatherCatV1.14B232,2013-03-08 01:38:00,
2013-03-07 20:43:00,49.8,41.8,30.20,WNW,292,0.0,0.0,74,0.00,,,0.00,WeatherCatV1.14B232,2013-03-08 01:43:00,
2013-03-07 20:48:00,49.6,41.6,30.20,WNW,292,0.0,0.0,74,0.00,,,0.00,WeatherCatV1.14B232,2013-03-08 01:48:00,
2013-03-07 20:53:00,49.6,41.6,30.21,WNW,292,0.0,0.0,74,0.00,,,0.00,WeatherCatV1.14B232,2013-03-08 01:53:00,
2013-03-07 20:58:00,49.3,41.3,30.20,WNW,292,0.0,0.0,74,0.00,,,0.00,WeatherCatV1.14B232,2013-03-08 01:58:00,
2013-03-07 21:03:00,49.3,41.6,30.20,WNW,292,0.0,0.0,75,0.00,,,0.00,WeatherCatV1.14B232,2013-03-08 02:03:00,
2013-03-07 21:08:00,49.1,41.5,30.20,WNW,292,0.0,0.0,75,0.00,,,0.00,WeatherCatV1.14B232,2013-03-08 02:08:00,
2013-03-07 21:13:00,48.9,41.3,30.20,WNW,292,0.0,0.0,75,0.00,,,0.00,WeatherCatV1.14B232,2013-03-08 02:13:00,
2013-03-07 21:18:00,48.9,41.3,30.20,WNW,292,0.0,0.0,75,0.00,,,0.00,WeatherCatV1.14B232,2013-03-08 02:18:00,
2013-03-07 21:23:00,48.7,41.1,30.20,West,270,0.0,0.0,75,0.00,,,0.00,WeatherCatV1.14B232,2013-03-08 02:23:00,
2013-03-07 21:28:00,48.7,41.1,30.20,West,270,0.0,0.0,75,0.00,,,0.00,WeatherCatV1.14B232,2013-03-08 02:28:00,
2013-03-07 21:33:00,48.6,41.3,30.20,West,270,0.0,0.0,76,0.00,,,0.00,WeatherCatV1.14B232,2013-03-08 02:33:00,
2013-03-07 21:38:00,48.6,41.3,30.21,West,270,0.0,0.0,76,0.00,,,0.00,WeatherCatV1.14B232,2013-03-08 02:38:00,
2013-03-07 21:43:00,48.4,41.1,30.21,West,270,0.0,0.0,76,0.00,,,0.00,WeatherCatV1.14B232,2013-03-08 02:43:00,
2013-03-07 21:48:00,48.2,40.9,30.20,West,270,0.0,0.0,76,0.00,,,0.00,WeatherCatV1.14B232,2013-03-08 02:48:00,
2013-03-07 21:53:00,48.0,40.7,30.20,West,270,0.0,0.0,76,0.00,,,0.00,WeatherCatV1.14B232,2013-03-08 02:53:00,
2013-03-07 21:58:00,48.0,41.1,30.20,West,270,0.0,0.0,77,0.00,,,0.00,WeatherCatV1.14B232,2013-03-08 02:58:00,
2013-03-07 22:03:00,48.0,41.1,30.20,WSW,247,0.0,0.0,77,0.00,,,0.00,WeatherCatV1.14B232,2013-03-08 03:03:00,
2013-03-07 22:08:00,47.8,40.9,30.20,WSW,247,0.0,0.0,77,0.00,,,0.00,WeatherCatV1.14B232,2013-03-08 03:08:00,
2013-03-07 22:13:00,47.7,40.7,30.20,WSW,247,0.0,0.0,77,0.00,,,0.00,WeatherCatV1.14B232,2013-03-08 03:13:00,
2013-03-07 22:18:00,47.7,40.7,30.20,WSW,247,0.0,0.0,77,0.00,,,0.00,WeatherCatV1.14B232,2013-03-08 03:18:00,
2013-03-07 22:23:00,47.5,40.6,30.21,WSW,247,0.0,0.0,77,0.00,,,0.00,WeatherCatV1.14B232,2013-03-08 03:23:00,
2013-03-07 22:28:00,47.3,40.4,30.21,West,270,0.0,0.0,77,0.00,,,0.00,WeatherCatV1.14B232,2013-03-08 03:28:00,
2013-03-07 22:33:00,47.3,40.4,30.20,West,270,0.0,0.0,77,0.00,,,0.00,WeatherCatV1.14B232,2013-03-08 03:33:00,
2013-03-07 22:38:00,47.1,40.3,30.20,West,270,0.0,0.0,77,0.00,,,0.00,WeatherCatV1.14B232,2013-03-08 03:38:00,
2013-03-07 22:43:00,47.1,40.3,30.20,West,270,0.0,0.0,77,0.00,,,0.00,WeatherCatV1.14B232,2013-03-08 03:43:00,
2013-03-07 22:48:00,47.1,40.3,30.21,West,270,0.0,0.0,77,0.00,,,0.00,WeatherCatV1.14B232,2013-03-08 03:48:00,
2013-03-07 22:53:00,47.1,40.3,30.21,West,270,0.0,0.0,77,0.00,,,0.00,WeatherCatV1.14B232,2013-03-08 03:53:00,
2013-03-07 22:58:00,46.9,40.1,30.20,West,270,0.0,0.0,77,0.00,,,0.00,WeatherCatV1.14B232,2013-03-08 03:58:00,
2013-03-07 23:03:00,46.9,40.1,30.21,West,270,0.0,0.0,77,0.00,,,0.00,WeatherCatV1.14B232,2013-03-08 04:03:00,
2013-03-07 23:08:00,46.8,40.3,30.20,West,270,0.0,0.0,78,0.00,,,0.00,WeatherCatV1.14B232,2013-03-08 04:08:00,
2013-03-07 23:13:00,46.8,40.3,30.20,West,270,0.0,0.0,78,0.00,,,0.00,WeatherCatV1.14B232,2013-03-08 04:13:00,
2013-03-07 23:18:00,46.6,40.1,30.20,West,270,0.0,0.0,78,0.00,,,0.00,WeatherCatV1.14B232,2013-03-08 04:18:00,
2013-03-07 23:23:00,46.6,40.1,30.20,West,270,0.0,0.0,78,0.00,,,0.00,WeatherCatV1.14B232,2013-03-08 04:23:00,
2013-03-07 23:28:00,46.4,40.0,30.20,West,270,0.0,0.0,78,0.00,,,0.00,WeatherCatV1.14B232,2013-03-08 04:28:00,
2013-03-07 23:33:00,46.2,39.8,30.20,West,270,0.0,0.0,78,0.00,,,0.00,WeatherCatV1.14B232,2013-03-08 04:33:00,
2013-03-07 23:38:00,46.2,39.8,30.20,West,270,0.0,0.0,78,0.00,,,0.00,WeatherCatV1.14B232,2013-03-08 04:38:00,
2013-03-07 23:43:00,46.2,39.8,30.20,West,270,0.0,0.0,78,0.00,,,0.00,WeatherCatV1.14B232,2013-03-08 04:43:00,
2013-03-07 23:48:00,46.2,39.8,30.20,West,270,0.0,0.0,78,0.00,,,0.00,WeatherCatV1.14B232,2013-03-08 04:48:00,
2013-03-07 23:53:00,46.0,39.6,30.20,West,270,0.0,0.0,78,0.00,,,0.00,WeatherCatV1.14B232,2013-03-08 04:53:00,
2013-03-07 23:58:00,46.0,39.6,30.20,West,270,0.0,0.0,78,0.00,,,0.00,WeatherCatV1.14B232,2013-03-08 04:58:00,